»·PEaware :: N9875 KSNA-KSAN

N9875 :: KSNA-KSAN

FLIGHT INFORMATION

Flight Status: Arrived
Operator: Privately registered:
United States
More flights under this callsign
Pilot: Anonymous 18910 (18910)
Aircraft: PILATUS PC-12 EAGLE
(PC12)
More flights by this aircraft type
Origin: KSNA John Wayne-Orange Co
United States
Destination: KSAN San Diego Intl-Lindbergh
United States
More flights between these airports :: More routes between these airports
Route: +V25 PACIF V208 LAX118 CARDI MZB320 MZB
File this flight plan on PilotEdge
Remarks:
Altitude:
(Current/Filed)
9,000ft
Speed:
(Current/Filed)
200kts
Departed: 05-May-18 07:13 PM
Arrived: 05-May-18 07:40 PM
Distance/Time
Traveled:
66nm/0:27
Distance/Time
To Go:
Arrived

Flight Plot

Page will automatically refresh every two minutes.


Map Options




Map Legend


Flown Route
Filed Route
Departure Airport
Arrival Airport
Navaid (VOR, NDB)
Fix

Horizontal Profiles

Position Reports

Time Latitude Longitude Heading Altitude Ground
Speed
05-May-18 18:35 33.672358 -117.866914 210 60ft 0kts
05-May-18 18:36 33.672358 -117.866914 210 60ft 0kts
05-May-18 18:37 33.672358 -117.866914 210 60ft 0kts
05-May-18 18:38 33.672358 -117.866914 210 60ft 0kts
05-May-18 18:39 33.672358 -117.866914 210 60ft 0kts
05-May-18 18:40 33.672358 -117.866914 210 60ft 0kts
05-May-18 18:41 33.672358 -117.866914 210 60ft 0kts
05-May-18 18:42 33.672358 -117.866914 210 60ft 0kts
05-May-18 18:43 33.672358 -117.866914 210 60ft 0kts
05-May-18 18:44 33.672358 -117.866914 210 60ft 0kts
05-May-18 18:45 33.672358 -117.866914 210 60ft 0kts
05-May-18 18:46 33.672358 -117.866914 210 60ft 0kts
05-May-18 18:47 33.672358 -117.866914 210 60ft 0kts
05-May-18 18:48 33.672358 -117.866914 210 60ft 0kts
05-May-18 18:49 33.672358 -117.866914 210 60ft 0kts
05-May-18 18:50 33.672358 -117.866914 210 60ft 0kts
05-May-18 18:51 33.672358 -117.866914 210 60ft 0kts
05-May-18 18:52 33.672358 -117.866914 210 60ft 0kts
05-May-18 18:53 33.672358 -117.866914 210 60ft 0kts
05-May-18 18:54 33.672358 -117.866914 210 60ft 0kts
05-May-18 18:55 33.672358 -117.866914 210 60ft 0kts
05-May-18 18:56 33.672358 -117.866914 210 60ft 0kts
05-May-18 18:57 33.672358 -117.866914 210 60ft 0kts
05-May-18 18:58 33.672358 -117.866914 210 60ft 0kts
05-May-18 18:59 33.672358 -117.866914 210 60ft 0kts
05-May-18 19:00 33.672358 -117.866914 210 60ft 0kts
05-May-18 19:01 33.672358 -117.866914 210 60ft 0kts
05-May-18 19:02 33.672358 -117.866914 210 60ft 0kts
05-May-18 19:03 33.672358 -117.866914 210 60ft 0kts
05-May-18 19:04 33.672358 -117.866914 210 60ft 0kts
05-May-18 19:05 33.672256 -117.867036 240 60ft 5kts
05-May-18 19:06 33.674363 -117.866327 29 60ft 20kts
05-May-18 19:07 33.679537 -117.863064 25 60ft 23kts
05-May-18 19:08 33.680688 -117.863176 299 60ft 0kts
05-May-18 19:09 33.680688 -117.863176 299 60ft 0kts
05-May-18 19:10 33.680688 -117.863176 299 60ft 0kts
05-May-18 19:12 33.680724 -117.865601 210 60ft 21kts
05-May-18 19:13 33.661306 -117.879372 202 669ft 94kts
05-May-18 19:14 33.633636 -117.883110 185 1792ft 114kts
05-May-18 19:15 33.601000 -117.886513 185 3155ft 124kts
05-May-18 19:16 33.565703 -117.890554 185 4519ft 130kts
05-May-18 19:17 33.531078 -117.882926 155 5823ft 137kts
05-May-18 19:18 33.495404 -117.862985 156 7054ft 144kts
05-May-18 19:19 33.458976 -117.842849 156 8315ft 145kts
05-May-18 19:20 33.418873 -117.820720 155 9020ft 199kts
05-May-18 19:21 33.360850 -117.788937 155 9010ft 248kts
05-May-18 19:22 33.297065 -117.753192 146 8998ft 258kts
05-May-18 19:23 33.274777 -117.671580 103 8998ft 264kts
05-May-18 19:24 33.261216 -117.585270 109 8975ft 262kts
05-May-18 19:25 33.216597 -117.522001 134 8980ft 256kts
05-May-18 19:26 33.168064 -117.461049 135 8980ft 256kts
05-May-18 19:27 33.113965 -117.408766 156 9000ft 253kts
05-May-18 19:28 33.052580 -117.375113 154 8143ft 243kts
05-May-18 19:29 32.993040 -117.342027 155 7198ft 234kts
05-May-18 19:30 32.934139 -117.309306 156 7013ft 234kts
05-May-18 19:31 32.877733 -117.278085 156 7018ft 235kts
05-May-18 19:32 32.818407 -117.245327 156 7017ft 237kts
05-May-18 19:33 32.780815 -117.187168 102 6885ft 242kts
05-May-18 19:34 32.766336 -117.111497 102 5809ft 222kts
05-May-18 19:35 32.749807 -117.045750 128 4323ft 202kts
05-May-18 19:36 32.702215 -117.033474 205 3685ft 199kts
05-May-18 19:37 32.707275 -117.085698 297 2685ft 181kts
05-May-18 19:38 32.719835 -117.133716 287 1098ft 110kts
05-May-18 19:39 32.728302 -117.168459 287 348ft 107kts
05-May-18 19:40 32.733924 -117.188130 32 21ft 1kts
05-May-18 19:41 32.734753 -117.186824 22 21ft 0kts
05-May-18 19:42 32.734754 -117.186824 22 21ft 0kts
05-May-18 19:43 32.734754 -117.186824 22 21ft 0kts
05-May-18 19:44 32.734754 -117.186824 22 21ft 0kts
05-May-18 19:45 32.734754 -117.186824 22 21ft 0kts
05-May-18 19:46 32.734754 -117.186824 22 21ft 0kts
05-May-18 19:47 32.734754 -117.186824 22 21ft 0kts
05-May-18 19:48 32.734754 -117.186824 22 21ft 0kts
05-May-18 19:49 32.734754 -117.186824 22 21ft 0kts

Navigation Log

Ident Type
1. KSNA Airport
2. PACIF Fix
3. CARDI Fix
4. MZB Navaid
5. KSAN Airport